sensor_id;sensor_type;location;lat;lon;timestamp;pressure;altitude;pressure_sealevel;temperature;humidity
15634;BME280;14654;48.898;8.308;2023-07-30T00:01:38;99794.31;;;19.17;100.00
15634;BME280;14654;48.898;8.308;2023-07-30T00:04:03;99800.56;;;19.15;100.00
15634;BME280;14654;48.898;8.308;2023-07-30T00:06:29;99798.25;;;19.09;100.00
15634;BME280;14654;48.898;8.308;2023-07-30T00:08:54;99797.59;;;19.05;100.00
15634;BME280;14654;48.898;8.308;2023-07-30T00:11:19;99789.97;;;19.00;100.00
15634;BME280;14654;48.898;8.308;2023-07-30T00:13:45;99797.88;;;18.99;100.00
15634;BME280;14654;48.898;8.308;2023-07-30T00:16:10;99798.06;;;18.96;100.00
15634;BME280;14654;48.898;8.308;2023-07-30T00:18:35;99792.84;;;18.96;100.00
15634;BME280;14654;48.898;8.308;2023-07-30T00:21:01;99787.72;;;18.93;100.00
15634;BME280;14654;48.898;8.308;2023-07-30T00:23:26;99789.56;;;18.91;100.00
15634;BME280;14654;48.898;8.308;2023-07-30T00:25:51;99798.34;;;18.89;100.00
15634;BME280;14654;48.898;8.308;2023-07-30T00:28:17;99793.09;;;18.89;100.00
15634;BME280;14654;48.898;8.308;2023-07-30T00:30:42;99797.72;;;18.84;100.00
15634;BME280;14654;48.898;8.308;2023-07-30T00:33:07;99808.31;;;18.83;100.00
15634;BME280;14654;48.898;8.308;2023-07-30T00:35:32;99812.88;;;18.79;100.00
15634;BME280;14654;48.898;8.308;2023-07-30T00:37:58;99810.31;;;18.78;100.00
15634;BME280;14654;48.898;8.308;2023-07-30T00:40:23;99805.94;;;18.78;100.00
15634;BME280;14654;48.898;8.308;2023-07-30T00:42:48;99809.38;;;18.79;100.00
15634;BME280;14654;48.898;8.308;2023-07-30T00:45:14;99817.25;;;18.79;100.00
15634;BME280;14654;48.898;8.308;2023-07-30T00:47:40;99817.25;;;18.79;100.00
15634;BME280;14654;48.898;8.308;2023-07-30T00:50:07;99817.47;;;18.74;100.00
15634;BME280;14654;48.898;8.308;2023-07-30T00:52:33;99828.13;;;18.71;100.00
15634;BME280;14654;48.898;8.308;2023-07-30T00:55:01;99820.44;;;18.68;100.00
15634;BME280;14654;48.898;8.308;2023-07-30T00:57:27;99823.09;;;18.66;100.00
15634;BME280;14654;48.898;8.308;2023-07-30T00:59:53;99823.19;;;18.65;100.00
15634;BME280;14654;48.898;8.308;2023-07-30T01:02:19;99824.94;;;18.64;100.00
15634;BME280;14654;48.898;8.308;2023-07-30T01:04:44;99826.66;;;18.65;100.00
15634;BME280;14654;48.898;8.308;2023-07-30T01:07:10;99820.56;;;18.65;100.00
15634;BME280;14654;48.898;8.308;2023-07-30T01:09:36;99830.19;;;18.64;100.00
15634;BME280;14654;48.898;8.308;2023-07-30T01:12:03;99825.81;;;18.65;100.00
15634;BME280;14654;48.898;8.308;2023-07-30T01:14:29;99835.44;;;18.64;100.00
15634;BME280;14654;48.898;8.308;2023-07-30T01:16:56;99834.47;;;18.67;100.00
15634;BME280;14654;48.898;8.308;2023-07-30T01:19:21;99828.28;;;18.68;100.00
15634;BME280;14654;48.898;8.308;2023-07-30T01:21:46;99837.00;;;18.68;100.00
15634;BME280;14654;48.898;8.308;2023-07-30T01:24:12;99841.31;;;18.69;100.00
15634;BME280;14654;48.898;8.308;2023-07-30T01:26:42;99843.78;;;18.72;100.00
15634;BME280;14654;48.898;8.308;2023-07-30T01:29:38;99844.47;;;18.76;100.00
15634;BME280;14654;48.898;8.308;2023-07-30T01:32:07;99845.16;;;18.80;100.00
15634;BME280;14654;48.898;8.308;2023-07-30T01:34:35;99830.09;;;18.83;100.00
15634;BME280;14654;48.898;8.308;2023-07-30T01:37:02;99837.00;;;18.86;100.00
15634;BME280;14654;48.898;8.308;2023-07-30T01:39:32;99840.28;;;18.89;100.00
15634;BME280;14654;48.898;8.308;2023-07-30T01:41:58;99834.22;;;18.89;100.00
15634;BME280;14654;48.898;8.308;2023-07-30T01:44:24;99835.91;;;18.90;100.00
15634;BME280;14654;48.898;8.308;2023-07-30T01:46:49;99840.97;;;18.93;100.00
15634;BME280;14654;48.898;8.308;2023-07-30T01:49:14;99847.09;;;18.94;100.00
15634;BME280;14654;48.898;8.308;2023-07-30T01:51:40;99849.66;;;18.95;100.00
15634;BME280;14654;48.898;8.308;2023-07-30T01:54:05;99856.59;;;18.96;100.00
15634;BME280;14654;48.898;8.308;2023-07-30T01:56:30;99861.78;;;18.98;100.00
15634;BME280;14654;48.898;8.308;2023-07-30T01:58:56;99857.47;;;18.97;100.00
15634;BME280;14654;48.898;8.308;2023-07-30T02:01:21;99847.91;;;18.96;100.00
15634;BME280;14654;48.898;8.308;2023-07-30T02:03:47;99853.13;;;18.96;100.00
15634;BME280;14654;48.898;8.308;2023-07-30T02:06:12;99847.03;;;18.95;100.00
15634;BME280;14654;48.898;8.308;2023-07-30T02:08:38;99840.94;;;18.95;100.00
15634;BME280;14654;48.898;8.308;2023-07-30T02:11:03;99846.09;;;18.96;100.00
15634;BME280;14654;48.898;8.308;2023-07-30T02:13:28;99841.72;;;18.97;100.00
15634;BME280;14654;48.898;8.308;2023-07-30T02:15:54;99838.34;;;18.95;100.00
15634;BME280;14654;48.898;8.308;2023-07-30T02:18:19;99838.44;;;18.92;100.00
15634;BME280;14654;48.898;8.308;2023-07-30T02:20:44;99839.38;;;18.91;100.00
15634;BME280;14654;48.898;8.308;2023-07-30T02:23:10;99829.91;;;18.88;100.00
15634;BME280;14654;48.898;8.308;2023-07-30T02:25:35;99835.19;;;18.86;100.00
15634;BME280;14654;48.898;8.308;2023-07-30T02:28:04;99844.91;;;18.84;100.00
15634;BME280;14654;48.898;8.308;2023-07-30T02:30:29;99830.97;;;18.84;100.00
15634;BME280;14654;48.898;8.308;2023-07-30T02:32:54;99829.28;;;18.83;100.00
15634;BME280;14654;48.898;8.308;2023-07-30T02:35:19;99833.69;;;18.82;100.00
15634;BME280;14654;48.898;8.308;2023-07-30T02:37:45;99842.38;;;18.83;100.00
15634;BME280;14654;48.898;8.308;2023-07-30T02:40:11;99841.47;;;18.84;100.00
15634;BME280;14654;48.898;8.308;2023-07-30T02:42:36;99835.34;;;18.83;100.00
15634;BME280;14654;48.898;8.308;2023-07-30T02:45:01;99837.06;;;18.84;100.00
15634;BME280;14654;48.898;8.308;2023-07-30T02:47:27;99844.91;;;18.84;100.00
15634;BME280;14654;48.898;8.308;2023-07-30T02:49:52;99840.44;;;18.86;100.00
15634;BME280;14654;48.898;8.308;2023-07-30T02:52:21;99841.38;;;18.85;100.00
15634;BME280;14654;48.898;8.308;2023-07-30T02:54:46;99835.19;;;18.86;100.00
15634;BME280;14654;48.898;8.308;2023-07-30T02:57:11;99843.84;;;18.88;100.00
15634;BME280;14654;48.898;8.308;2023-07-30T02:59:38;99857.81;;;18.89;100.00
15634;BME280;14654;48.898;8.308;2023-07-30T03:02:03;99854.09;;;18.93;100.00
15634;BME280;14654;48.898;8.308;2023-07-30T03:04:32;99858.50;;;18.93;100.00
15634;BME280;14654;48.898;8.308;2023-07-30T03:06:57;99861.13;;;18.93;100.00
15634;BME280;14654;48.898;8.308;2023-07-30T03:09:23;99865.59;;;18.91;100.00
15634;BME280;14654;48.898;8.308;2023-07-30T03:11:51;99864.81;;;18.88;100.00
15634;BME280;14654;48.898;8.308;2023-07-30T03:14:17;99868.34;;;18.87;100.00
15634;BME280;14654;48.898;8.308;2023-07-30T03:16:48;99863.97;;;18.88;100.00
15634;BME280;14654;48.898;8.308;2023-07-30T03:19:14;99866.66;;;18.86;100.00
15634;BME280;14654;48.898;8.308;2023-07-30T03:21:39;99865.75;;;18.87;100.00
15634;BME280;14654;48.898;8.308;2023-07-30T03:24:05;99868.31;;;18.89;100.00
15634;BME280;14654;48.898;8.308;2023-07-30T03:26:35;99872.53;;;18.92;100.00
15634;BME280;14654;48.898;8.308;2023-07-30T03:29:01;99882.16;;;18.91;100.00
15634;BME280;14654;48.898;8.308;2023-07-30T03:31:26;99887.34;;;18.93;100.00
15634;BME280;14654;48.898;8.308;2023-07-30T03:33:53;99887.34;;;18.93;100.00
15634;BME280;14654;48.898;8.308;2023-07-30T03:36:19;99890.03;;;18.91;100.00
15634;BME280;14654;48.898;8.308;2023-07-30T03:38:44;99881.56;;;18.86;100.00
15634;BME280;14654;48.898;8.308;2023-07-30T03:41:10;99893.03;;;18.83;100.00
15634;BME280;14654;48.898;8.308;2023-07-30T03:43:36;99893.19;;;18.80;100.00
15634;BME280;14654;48.898;8.308;2023-07-30T03:46:01;99902.00;;;18.79;100.00
15634;BME280;14654;48.898;8.308;2023-07-30T03:48:27;99897.66;;;18.78;100.00
15634;BME280;14654;48.898;8.308;2023-07-30T03:50:53;99902.97;;;18.77;100.00
15634;BME280;14654;48.898;8.308;2023-07-30T03:53:19;99899.44;;;18.78;100.00
15634;BME280;14654;48.898;8.308;2023-07-30T03:55:44;99921.25;;;18.78;100.00
15634;BME280;14654;48.898;8.308;2023-07-30T03:58:09;99928.22;;;18.79;100.00
15634;BME280;14654;48.898;8.308;2023-07-30T04:00:35;99942.09;;;18.81;100.00
15634;BME280;14654;48.898;8.308;2023-07-30T04:03:00;99940.31;;;18.82;100.00
15634;BME280;14654;48.898;8.308;2023-07-30T04:05:25;99920.19;;;18.82;100.00
15634;BME280;14654;48.898;8.308;2023-07-30T04:07:50;99922.09;;;18.79;100.00
15634;BME280;14654;48.898;8.308;2023-07-30T04:10:16;99913.53;;;18.75;100.00
15634;BME280;14654;48.898;8.308;2023-07-30T04:12:41;99907.63;;;18.71;100.00
15634;BME280;14654;48.898;8.308;2023-07-30T04:15:07;99913.81;;;18.69;100.00
15634;BME280;14654;48.898;8.308;2023-07-30T04:17:33;99900.97;;;18.64;100.00
15634;BME280;14654;48.898;8.308;2023-07-30T04:19:58;99901.88;;;18.63;100.00
15634;BME280;14654;48.898;8.308;2023-07-30T04:22:24;99902.88;;;18.61;100.00
15634;BME280;14654;48.898;8.308;2023-07-30T04:24:49;99912.53;;;18.60;100.00
15634;BME280;14654;48.898;8.308;2023-07-30T04:27:18;99916.91;;;18.59;100.00
15634;BME280;14654;48.898;8.308;2023-07-30T04:29:43;99921.31;;;18.59;100.00
15634;BME280;14654;48.898;8.308;2023-07-30T04:32:12;99926.69;;;18.56;100.00
15634;BME280;14654;48.898;8.308;2023-07-30T04:34:37;99929.81;;;18.45;100.00
15634;BME280;14654;48.898;8.308;2023-07-30T04:37:03;99929.28;;;18.38;100.00
15634;BME280;14654;48.898;8.308;2023-07-30T04:39:30;99931.88;;;18.38;100.00
15634;BME280;14654;48.898;8.308;2023-07-30T04:41:56;99931.09;;;18.36;100.00
15634;BME280;14654;48.898;8.308;2023-07-30T04:44:22;99932.72;;;18.39;100.00
15634;BME280;14654;48.898;8.308;2023-07-30T04:46:47;99928.22;;;18.42;100.00
15634;BME280;14654;48.898;8.308;2023-07-30T04:49:12;99932.38;;;18.47;100.00
15634;BME280;14654;48.898;8.308;2023-07-30T04:51:38;99932.16;;;18.51;100.00
15634;BME280;14654;48.898;8.308;2023-07-30T04:54:03;99925.84;;;18.55;100.00
15634;BME280;14654;48.898;8.308;2023-07-30T04:56:28;99935.25;;;18.59;100.00
15634;BME280;14654;48.898;8.308;2023-07-30T04:58:54;99931.56;;;18.64;100.00
15634;BME280;14654;48.898;8.308;2023-07-30T05:01:20;99936.59;;;18.68;100.00
15634;BME280;14654;48.898;8.308;2023-07-30T05:03:46;99936.34;;;18.73;100.00
15634;BME280;14654;48.898;8.308;2023-07-30T05:06:11;99939.66;;;18.77;100.00
15634;BME280;14654;48.898;8.308;2023-07-30T05:08:36;99944.72;;;18.81;100.00
15634;BME280;14654;48.898;8.308;2023-07-30T05:11:01;99941.84;;;18.86;100.00
15634;BME280;14654;48.898;8.308;2023-07-30T05:13:27;99948.56;;;18.92;100.00
15634;BME280;14654;48.898;8.308;2023-07-30T05:15:52;99936.19;;;18.95;100.00
15634;BME280;14654;48.898;8.308;2023-07-30T05:18:18;99931.56;;;19.00;100.00
15634;BME280;14654;48.898;8.308;2023-07-30T05:20:45;99923.47;;;19.05;100.00
15634;BME280;14654;48.898;8.308;2023-07-30T05:23:11;99924.88;;;19.12;100.00
15634;BME280;14654;48.898;8.308;2023-07-30T05:25:36;99918.47;;;19.18;100.00
15634;BME280;14654;48.898;8.308;2023-07-30T05:28:02;99933.63;;;19.29;100.00
15634;BME280;14654;48.898;8.308;2023-07-30T05:30:27;99941.97;;;19.37;100.00
15634;BME280;14654;48.898;8.308;2023-07-30T05:32:52;99929.28;;;19.45;100.00
15634;BME280;14654;48.898;8.308;2023-07-30T05:35:17;99932.75;;;19.63;100.00
15634;BME280;14654;48.898;8.308;2023-07-30T05:37:44;99927.00;;;20.06;100.00
15634;BME280;14654;48.898;8.308;2023-07-30T05:40:09;99924.69;;;20.80;100.00
15634;BME280;14654;48.898;8.308;2023-07-30T05:42:34;99925.78;;;21.52;100.00
15634;BME280;14654;48.898;8.308;2023-07-30T05:45:00;99916.59;;;21.88;100.00
15634;BME280;14654;48.898;8.308;2023-07-30T05:47:25;99913.53;;;22.08;100.00
15634;BME280;14654;48.898;8.308;2023-07-30T05:49:50;99915.09;;;22.40;100.00
15634;BME280;14654;48.898;8.308;2023-07-30T05:52:16;99918.97;;;22.62;100.00
15634;BME280;14654;48.898;8.308;2023-07-30T05:54:41;99917.81;;;22.38;100.00
15634;BME280;14654;48.898;8.308;2023-07-30T05:57:06;99923.81;;;22.13;100.00
15634;BME280;14654;48.898;8.308;2023-07-30T05:59:32;99934.84;;;21.91;100.00
15634;BME280;14654;48.898;8.308;2023-07-30T06:02:02;99946.34;;;21.61;100.00
15634;BME280;14654;48.898;8.308;2023-07-30T06:04:28;99954.53;;;21.40;100.00
15634;BME280;14654;48.898;8.308;2023-07-30T06:06:53;99958.44;;;21.19;100.00
15634;BME280;14654;48.898;8.308;2023-07-30T06:09:18;99961.66;;;20.93;100.00
15634;BME280;14654;48.898;8.308;2023-07-30T06:11:44;99962.44;;;20.63;100.00
15634;BME280;14654;48.898;8.308;2023-07-30T06:14:12;99962.59;;;20.44;100.00
15634;BME280;14654;48.898;8.308;2023-07-30T06:16:37;99960.66;;;20.32;100.00
15634;BME280;14654;48.898;8.308;2023-07-30T06:19:02;99962.94;;;20.22;100.00
15634;BME280;14654;48.898;8.308;2023-07-30T06:21:28;99971.16;;;20.16;100.00
15634;BME280;14654;48.898;8.308;2023-07-30T06:23:53;99975.41;;;20.02;100.00
15634;BME280;14654;48.898;8.308;2023-07-30T06:26:18;99977.41;;;19.97;100.00
15634;BME280;14654;48.898;8.308;2023-07-30T06:28:44;99979.34;;;19.93;100.00
15634;BME280;14654;48.898;8.308;2023-07-30T06:31:09;99982.22;;;19.89;100.00
15634;BME280;14654;48.898;8.308;2023-07-30T06:33:34;99978.88;;;19.85;100.00
15634;BME280;14654;48.898;8.308;2023-07-30T06:36:00;99982.41;;;19.84;100.00
15634;BME280;14654;48.898;8.308;2023-07-30T06:38:25;99978.84;;;19.87;100.00
15634;BME280;14654;48.898;8.308;2023-07-30T06:40:50;99979.50;;;19.90;100.00
15634;BME280;14654;48.898;8.308;2023-07-30T06:43:16;99981.22;;;19.91;100.00
15634;BME280;14654;48.898;8.308;2023-07-30T06:45:41;99992.78;;;19.87;100.00
15634;BME280;14654;48.898;8.308;2023-07-30T06:48:06;99992.16;;;19.82;100.00
15634;BME280;14654;48.898;8.308;2023-07-30T06:50:32;99997.66;;;19.77;100.00
15634;BME280;14654;48.898;8.308;2023-07-30T06:52:57;100008.38;;;19.73;100.00
15634;BME280;14654;48.898;8.308;2023-07-30T06:55:22;100013.72;;;19.71;100.00
15634;BME280;14654;48.898;8.308;2023-07-30T06:57:48;100011.69;;;19.76;100.00
15634;BME280;14654;48.898;8.308;2023-07-30T07:00:13;100016.03;;;19.77;100.00
15634;BME280;14654;48.898;8.308;2023-07-30T07:02:44;100012.47;;;19.78;100.00
15634;BME280;14654;48.898;8.308;2023-07-30T07:05:10;100009.00;;;19.78;100.00
15634;BME280;14654;48.898;8.308;2023-07-30T07:07:35;100004.84;;;19.74;100.00
15634;BME280;14654;48.898;8.308;2023-07-30T07:10:00;100009.56;;;19.67;100.00
15634;BME280;14654;48.898;8.308;2023-07-30T07:12:26;100025.16;;;19.70;100.00
15634;BME280;14654;48.898;8.308;2023-07-30T07:14:51;100027.44;;;19.76;100.00
15634;BME280;14654;48.898;8.308;2023-07-30T07:17:16;100035.03;;;19.83;100.00
15634;BME280;14654;48.898;8.308;2023-07-30T07:19:45;100038.97;;;19.91;100.00
15634;BME280;14654;48.898;8.308;2023-07-30T07:22:10;100035.56;;;20.07;100.00
15634;BME280;14654;48.898;8.308;2023-07-30T07:24:35;100034.66;;;20.24;100.00
15634;BME280;14654;48.898;8.308;2023-07-30T07:27:00;100026.72;;;20.41;100.00
15634;BME280;14654;48.898;8.308;2023-07-30T07:29:26;100034.78;;;20.70;100.00
15634;BME280;14654;48.898;8.308;2023-07-30T07:31:51;100032.31;;;20.99;100.00
15634;BME280;14654;48.898;8.308;2023-07-30T07:34:16;100029.84;;;21.12;100.00
15634;BME280;14654;48.898;8.308;2023-07-30T07:36:42;100034.75;;;21.19;100.00
15634;BME280;14654;48.898;8.308;2023-07-30T07:39:07;100035.34;;;21.24;100.00
15634;BME280;14654;48.898;8.308;2023-07-30T07:41:33;100033.50;;;21.40;100.00
15634;BME280;14654;48.898;8.308;2023-07-30T07:43:58;100033.50;;;21.71;100.00
15634;BME280;14654;48.898;8.308;2023-07-30T07:46:23;100017.72;;;22.29;100.00
15634;BME280;14654;48.898;8.308;2023-07-30T07:48:49;100025.78;;;22.96;100.00
15634;BME280;14654;48.898;8.308;2023-07-30T07:51:18;100027.97;;;23.57;100.00
15634;BME280;14654;48.898;8.308;2023-07-30T07:53:43;100018.97;;;24.25;100.00
15634;BME280;14654;48.898;8.308;2023-07-30T07:56:08;100016.91;;;24.54;100.00
15634;BME280;14654;48.898;8.308;2023-07-30T07:58:34;100018.09;;;24.37;100.00
15634;BME280;14654;48.898;8.308;2023-07-30T08:01:00;100025.69;;;24.04;100.00
15634;BME280;14654;48.898;8.308;2023-07-30T08:03:26;100029.56;;;23.73;100.00
15634;BME280;14654;48.898;8.308;2023-07-30T08:05:57;100038.34;;;23.86;100.00
15634;BME280;14654;48.898;8.308;2023-07-30T08:08:24;100038.16;;;23.89;100.00
15634;BME280;14654;48.898;8.308;2023-07-30T08:10:50;100044.38;;;23.88;100.00
15634;BME280;14654;48.898;8.308;2023-07-30T08:13:15;100042.34;;;23.66;100.00
15634;BME280;14654;48.898;8.308;2023-07-30T08:15:41;100048.03;;;23.60;100.00
15634;BME280;14654;48.898;8.308;2023-07-30T08:18:06;100042.88;;;23.58;100.00
15634;BME280;14654;48.898;8.308;2023-07-30T08:20:31;100040.03;;;23.74;100.00
15634;BME280;14654;48.898;8.308;2023-07-30T08:22:57;100048.09;;;23.99;100.00
15634;BME280;14654;48.898;8.308;2023-07-30T08:25:22;100050.50;;;24.28;100.00
15634;BME280;14654;48.898;8.308;2023-07-30T08:27:47;100041.63;;;24.16;100.00
15634;BME280;14654;48.898;8.308;2023-07-30T08:30:13;100047.03;;;24.01;100.00
15634;BME280;14654;48.898;8.308;2023-07-30T08:32:38;100054.75;;;24.04;100.00
15634;BME280;14654;48.898;8.308;2023-07-30T08:35:04;100055.59;;;24.05;100.00
15634;BME280;14654;48.898;8.308;2023-07-30T08:37:30;100056.31;;;24.07;100.00
15634;BME280;14654;48.898;8.308;2023-07-30T08:39:58;100053.56;;;24.22;100.00
15634;BME280;14654;48.898;8.308;2023-07-30T08:42:24;100050.09;;;24.34;100.00
15634;BME280;14654;48.898;8.308;2023-07-30T08:44:49;100061.91;;;24.41;100.00
15634;BME280;14654;48.898;8.308;2023-07-30T08:47:15;100054.72;;;24.43;99.47
15634;BME280;14654;48.898;8.308;2023-07-30T08:49:40;100061.28;;;24.25;97.92
15634;BME280;14654;48.898;8.308;2023-07-30T08:52:08;100060.56;;;23.97;97.80
15634;BME280;14654;48.898;8.308;2023-07-30T08:54:36;100069.72;;;23.78;98.40
15634;BME280;14654;48.898;8.308;2023-07-30T08:57:01;100074.06;;;23.66;99.17
15634;BME280;14654;48.898;8.308;2023-07-30T08:59:31;100078.25;;;23.56;98.96
15634;BME280;14654;48.898;8.308;2023-07-30T09:01:57;100069.50;;;23.55;99.02
15634;BME280;14654;48.898;8.308;2023-07-30T09:04:23;100073.50;;;23.61;97.25
15634;BME280;14654;48.898;8.308;2023-07-30T09:06:49;100075.94;;;23.77;95.54
15634;BME280;14654;48.898;8.308;2023-07-30T09:09:15;100068.34;;;23.72;93.80
15634;BME280;14654;48.898;8.308;2023-07-30T09:11:40;100074.91;;;23.93;96.11
15634;BME280;14654;48.898;8.308;2023-07-30T09:14:06;100067.13;;;24.17;94.73
15634;BME280;14654;48.898;8.308;2023-07-30T09:16:32;100067.50;;;24.49;91.69
15634;BME280;14654;48.898;8.308;2023-07-30T09:18:58;100075.59;;;24.59;91.24
15634;BME280;14654;48.898;8.308;2023-07-30T09:21:30;100079.75;;;24.76;91.36
15634;BME280;14654;48.898;8.308;2023-07-30T09:23:56;100085.78;;;24.78;91.97
15634;BME280;14654;48.898;8.308;2023-07-30T09:26:22;100085.66;;;25.04;92.33
15634;BME280;14654;48.898;8.308;2023-07-30T09:28:47;100089.84;;;25.20;92.00
15634;BME280;14654;48.898;8.308;2023-07-30T09:31:12;100088.91;;;25.32;90.62
15634;BME280;14654;48.898;8.308;2023-07-30T09:33:41;100086.88;;;25.36;88.91
15634;BME280;14654;48.898;8.308;2023-07-30T09:36:09;100094.44;;;25.53;89.22
15634;BME280;14654;48.898;8.308;2023-07-30T09:38:44;100102.03;;;25.58;88.30
15634;BME280;14654;48.898;8.308;2023-07-30T09:41:11;100089.31;;;25.63;87.81
15634;BME280;14654;48.898;8.308;2023-07-30T09:43:37;100091.72;;;25.66;84.26
15634;BME280;14654;48.898;8.308;2023-07-30T09:46:03;100088.59;;;25.72;84.11
15634;BME280;14654;48.898;8.308;2023-07-30T09:48:31;100084.75;;;25.65;84.09
15634;BME280;14654;48.898;8.308;2023-07-30T09:51:01;100102.41;;;25.53;84.33
15634;BME280;14654;48.898;8.308;2023-07-30T09:53:33;100101.25;;;25.20;84.36
15634;BME280;14654;48.898;8.308;2023-07-30T09:56:03;100106.59;;;24.83;86.15
15634;BME280;14654;48.898;8.308;2023-07-30T09:58:29;100105.50;;;24.35;87.27
15634;BME280;14654;48.898;8.308;2023-07-30T10:00:58;100112.69;;;24.08;89.00
15634;BME280;14654;48.898;8.308;2023-07-30T10:03:24;100116.31;;;23.79;90.36
15634;BME280;14654;48.898;8.308;2023-07-30T10:05:50;100124.09;;;23.55;91.46
15634;BME280;14654;48.898;8.308;2023-07-30T10:08:21;100127.41;;;23.31;92.33
15634;BME280;14654;48.898;8.308;2023-07-30T10:10:49;100139.41;;;23.08;94.02
15634;BME280;14654;48.898;8.308;2023-07-30T10:13:15;100138.69;;;22.91;95.13
15634;BME280;14654;48.898;8.308;2023-07-30T10:15:45;100147.41;;;22.79;96.28
15634;BME280;14654;48.898;8.308;2023-07-30T10:18:11;100148.91;;;22.68;97.06
15634;BME280;14654;48.898;8.308;2023-07-30T10:20:37;100155.31;;;22.64;98.16
15634;BME280;14654;48.898;8.308;2023-07-30T10:23:04;100152.56;;;22.66;98.84
15634;BME280;14654;48.898;8.308;2023-07-30T10:25:49;100154.06;;;22.84;99.25
15634;BME280;14654;48.898;8.308;2023-07-30T10:31:02;100164.00;;;23.23;98.65
15634;BME280;14654;48.898;8.308;2023-07-30T10:33:49;100164.03;;;23.50;98.02
15634;BME280;14654;48.898;8.308;2023-07-30T10:36:40;100166.22;;;23.71;96.24
15634;BME280;14654;48.898;8.308;2023-07-30T10:39:16;100166.56;;;23.92;95.46
15634;BME280;14654;48.898;8.308;2023-07-30T10:41:46;100150.97;;;24.02;97.15
15634;BME280;14654;48.898;8.308;2023-07-30T10:44:31;100147.41;;;24.42;94.38
15634;BME280;14654;48.898;8.308;2023-07-30T10:46:58;100149.81;;;24.71;93.21
15634;BME280;14654;48.898;8.308;2023-07-30T10:49:25;100156.34;;;24.91;92.68
15634;BME280;14654;48.898;8.308;2023-07-30T10:51:55;100164.38;;;24.89;95.87
15634;BME280;14654;48.898;8.308;2023-07-30T10:54:22;100154.41;;;25.30;93.25
15634;BME280;14654;48.898;8.308;2023-07-30T10:56:48;100150.56;;;25.34;89.88
15634;BME280;14654;48.898;8.308;2023-07-30T10:59:14;100154.25;;;25.45;88.30
15634;BME280;14654;48.898;8.308;2023-07-30T11:01:42;100165.06;;;25.17;84.14
15634;BME280;14654;48.898;8.308;2023-07-30T11:04:16;100170.63;;;24.88;83.61
15634;BME280;14654;48.898;8.308;2023-07-30T11:06:50;100162.06;;;24.85;82.16
15634;BME280;14654;48.898;8.308;2023-07-30T11:09:27;100165.78;;;24.82;82.00
15634;BME280;14654;48.898;8.308;2023-07-30T11:11:54;100165.69;;;24.71;82.24
15634;BME280;14654;48.898;8.308;2023-07-30T11:14:22;100168.22;;;24.72;81.19
15634;BME280;14654;48.898;8.308;2023-07-30T11:16:55;100159.88;;;24.78;79.77
15634;BME280;14654;48.898;8.308;2023-07-30T11:19:23;100170.41;;;24.91;80.10
15634;BME280;14654;48.898;8.308;2023-07-30T11:21:50;100170.25;;;25.06;78.99
15634;BME280;14654;48.898;8.308;2023-07-30T11:24:16;100168.56;;;25.05;81.18
15634;BME280;14654;48.898;8.308;2023-07-30T11:26:42;100166.03;;;25.03;80.32
15634;BME280;14654;48.898;8.308;2023-07-30T11:29:18;100175.13;;;25.12;79.20
15634;BME280;14654;48.898;8.308;2023-07-30T11:31:44;100161.38;;;25.07;78.77
15634;BME280;14654;48.898;8.308;2023-07-30T11:34:10;100163.75;;;24.99;79.66
15634;BME280;14654;48.898;8.308;2023-07-30T11:36:36;100167.34;;;24.98;78.19
15634;BME280;14654;48.898;8.308;2023-07-30T11:39:01;100171.81;;;24.71;75.75
15634;BME280;14654;48.898;8.308;2023-07-30T11:41:27;100170.03;;;24.72;77.48
15634;BME280;14654;48.898;8.308;2023-07-30T11:43:54;100175.44;;;24.70;77.46
15634;BME280;14654;48.898;8.308;2023-07-30T11:46:19;100179.75;;;24.71;77.74
15634;BME280;14654;48.898;8.308;2023-07-30T11:49:10;100176.56;;;24.66;78.45
15634;BME280;14654;48.898;8.308;2023-07-30T11:51:36;100179.75;;;24.71;78.02
15634;BME280;14654;48.898;8.308;2023-07-30T11:54:01;100178.16;;;24.81;77.57
15634;BME280;14654;48.898;8.308;2023-07-30T11:56:31;100162.84;;;25.11;76.82
15634;BME280;14654;48.898;8.308;2023-07-30T11:59:05;100153.25;;;25.21;75.25
15634;BME280;14654;48.898;8.308;2023-07-30T12:01:34;100164.66;;;25.35;75.77
15634;BME280;14654;48.898;8.308;2023-07-30T12:04:01;100169.66;;;25.64;75.99
15634;BME280;14654;48.898;8.308;2023-07-30T12:09:21;100189.00;;;26.13;74.32
15634;BME280;14654;48.898;8.308;2023-07-30T12:14:25;100193.22;;;26.15;72.28
15634;BME280;14654;48.898;8.308;2023-07-30T12:16:55;100184.81;;;26.44;73.60
15634;BME280;14654;48.898;8.308;2023-07-30T12:19:20;100179.66;;;26.54;73.36
15634;BME280;14654;48.898;8.308;2023-07-30T12:21:45;100174.22;;;26.67;72.77
15634;BME280;14654;48.898;8.308;2023-07-30T12:24:11;100182.16;;;26.22;70.64
15634;BME280;14654;48.898;8.308;2023-07-30T12:26:36;100189.00;;;26.13;72.22
15634;BME280;14654;48.898;8.308;2023-07-30T12:29:01;100192.94;;;26.07;72.21
15634;BME280;14654;48.898;8.308;2023-07-30T12:31:27;100192.22;;;26.05;71.42
15634;BME280;14654;48.898;8.308;2023-07-30T12:33:52;100196.03;;;26.01;71.78
15634;BME280;14654;48.898;8.308;2023-07-30T12:36:17;100195.91;;;26.02;72.19
15634;BME280;14654;48.898;8.308;2023-07-30T12:38:43;100190.13;;;25.97;72.08
15634;BME280;14654;48.898;8.308;2023-07-30T12:41:08;100192.78;;;25.97;72.60
15634;BME280;14654;48.898;8.308;2023-07-30T12:43:33;100205.09;;;26.10;72.84
15634;BME280;14654;48.898;8.308;2023-07-30T12:45:59;100199.88;;;25.97;71.24
15634;BME280;14654;48.898;8.308;2023-07-30T12:48:24;100206.88;;;25.98;72.69
15634;BME280;14654;48.898;8.308;2023-07-30T12:50:49;100194.94;;;25.92;72.46
15634;BME280;14654;48.898;8.308;2023-07-30T12:53:15;100202.50;;;25.85;69.52